Century Venus — 3FXD2 — position and weather

sailwx.info

Track history (hours):
 
Tides and Currents Weather Stations Pressure Air Temp Water Temp Dewpoint Dewpoint Depression Visibility Wind Speed Wind Dir Waves Ship Positions

Century Venus

Last reported at 2017-Sep-29 22:45 UTC. Time now 2017-Oct-20 12:50 UTC.
Position N 27°38' W 082°34'.
Warning: this ship's position is 20 days out of date.

Length 137 m; draft 5.7 m.

Type: Cargo ship. MMSI: 357069000.

Date/timePositionNaut miles runAvg speedWind from/ knotsBaromVisibWave heightAir tempDewpointWater temp
2017-Sep-29 22:45N 27°38' W 082°34'1 4.0
2017-Sep-29 22:30N 27°39' W 082°35'2 4.6
2017-Sep-29 22:00N 27°41' W 082°35'5 9.4
2017-Sep-29 21:30N 27°45' W 082°32'4 9.0
2017-Sep-29 21:00N 27°48' W 082°28'4 8.1
2017-Sep-29 20:30N 27°51' W 082°25'2 3.0
2017-Sep-29 20:00N 27°51' W 082°24'0 0.0
2017-Sep-29 19:28N 27°51' W 082°24'0 0.0
2017-Sep-29 19:01N 27°51' W 082°24'0 0.0
2017-Sep-29 18:25N 27°51' W 082°24'0 0.0
2017-Sep-29 17:58N 27°51' W 082°24'0 0.0
2017-Sep-29 17:28N 27°51' W 082°24'0 0.0
2017-Sep-29 16:58N 27°51' W 082°24'0 0.0
2017-Sep-29 16:28N 27°51' W 082°24'0 0.0
2017-Sep-29 15:58N 27°51' W 082°24'0 0.0
2017-Sep-29 15:28N 27°51' W 082°24'0 0.0
2017-Sep-29 15:01N 27°51' W 082°24'0 0.0
2017-Sep-29 14:28N 27°51' W 082°24'0 0.0
2017-Sep-29 13:58N 27°51' W 082°24'0 0.0
2017-Sep-29 13:31N 27°51' W 082°24'0 0.0
2017-Sep-29 12:58N 27°51' W 082°24'0 0.0
2017-Sep-29 12:28N 27°51' W 082°24'0 0.0
2017-Sep-29 11:34N 27°51' W 082°24'0 0.0
2017-Sep-29 11:22N 27°51' W 082°24'0 0.0
2017-Sep-29 10:58N 27°51' W 082°24'0 0.0
2017-Sep-29 10:07N 27°51' W 082°24'0 0.0
2017-Sep-29 09:55N 27°51' W 082°24'0 0.0
2017-Sep-29 09:28N 27°51' W 082°24'0 0.0
2017-Sep-29 08:58N 27°51' W 082°24'0 0.0
2017-Sep-29 08:28N 27°51' W 082°24'0 0.0
2017-Sep-29 07:52N 27°51' W 082°24'0 0.0
2017-Sep-29 07:07N 27°51' W 082°24'0 0.0
2017-Sep-29 06:58N 27°51' W 082°24'0 0.0
2017-Sep-29 06:25N 27°51' W 082°24'0 0.0
2017-Sep-29 05:52N 27°51' W 082°24'0 0.0
2017-Sep-29 05:13N 27°51' W 082°24'0 0.0
2017-Sep-29 04:58N 27°51' W 082°24'0 0.0
2017-Sep-29 04:28N 27°51' W 082°24'0 0.0
2017-Sep-29 03:58N 27°51' W 082°24'0 0.0
2017-Sep-29 03:31N 27°51' W 082°24'0 0.0
2017-Sep-29 03:01N 27°51' W 082°24'0 0.0
2017-Sep-29 02:28N 27°51' W 082°24'0 0.0
2017-Sep-29 01:58N 27°51' W 082°24'1 1.2
2017-Sep-29 01:30N 27°51' W 082°24'3 5.9
2017-Sep-29 01:00N 27°49' W 082°27'5 9.9
2017-Sep-29 00:30N 27°47' W 082°31'611.6
2017-Sep-29 00:00N 27°41' W 082°34'210 4.1
2017-Sep-26 21:03N 25°29' W 079°32'110.3
2017-Sep-26 20:57N 25°30' W 079°32'610.3
2017-Sep-26 20:22N 25°36' W 079°31'410.4
2017-Sep-26 20:00N 25°39' W 079°30'510.2
2017-Sep-26 19:30N 25°44' W 079°30'5 9.8
2017-Sep-26 19:00N 25°49' W 079°29'5 9.6
2017-Sep-26 18:30N 25°54' W 079°28'5 9.3
2017-Sep-26 17:55N 25°59' W 079°27'5 9.1
2017-Sep-26 17:23N 26°04' W 079°27'4 9.1
2017-Sep-26 17:00N 26°08' W 079°26'4 9.0
2017-Sep-26 16:30N 26°12' W 079°25'4 8.9
2017-Sep-26 16:00N 26°17' W 079°25'5 8.7
2017-Sep-26 15:29N 26°21' W 079°24'9 8.8
2017-Sep-26 14:24N 26°30' W 079°22'  
2017-Sep-23 20:57N 36°47' W 075°43'711.8
2017-Sep-23 20:22N 36°51' W 075°50'412.0
2017-Sep-23 20:00N 36°54' W 075°55'26 0.6
2017-Sep-22 01:57N 36°58' W 076°26'0 0.0
2017-Sep-22 01:24N 36°58' W 076°26'0 0.0
2017-Sep-22 01:00N 36°58' W 076°27'0 0.0
2017-Sep-22 00:30N 36°58' W 076°26'0 0.4
2017-Sep-22 00:01N 36°58' W 076°26'4 8.7
2017-Sep-21 23:30N 36°58' W 076°21'711.8
2017-Sep-21 22:53N 36°60' W 076°12'512.2
2017-Sep-21 22:30N 36°58' W 076°06'611.6
2017-Sep-21 22:00N 36°57' W 075°59'4 8.5
2017-Sep-21 21:30N 36°55' W 075°55'4 7.8
2017-Sep-21 21:00N 36°52' W 075°51'612.2
2017-Sep-21 20:30N 36°49' W 075°44'9 4.1
2017-Sep-21 18:25N 36°45' W 075°35'  
Track history (hours):
 
Tides and Currents Weather Stations Pressure Air Temp Water Temp Dewpoint Dewpoint Depression Visibility Wind Speed Wind Dir Waves Ship Positions

Century Venus

Last reported at 2017-Sep-29 22:45 UTC. Time now 2017-Oct-20 12:50 UTC.
Position N 27°38' W 082°34'.
Warning: this ship's position is 20 days out of date.

Length 137 m; draft 5.7 m.

Type: Cargo ship. MMSI: 357069000.

Date/timePositionNaut miles runAvg speedWind from/ knotsBaromVisibWave heightAir tempDewpointWater temp
2017-Sep-29 22:45N 27°38' W 082°34'1 4.0
2017-Sep-29 22:30N 27°39' W 082°35'2 4.6
2017-Sep-29 22:00N 27°41' W 082°35'5 9.4
2017-Sep-29 21:30N 27°45' W 082°32'4 9.0
2017-Sep-29 21:00N 27°48' W 082°28'4 8.1
2017-Sep-29 20:30N 27°51' W 082°25'2 3.0
2017-Sep-29 20:00N 27°51' W 082°24'0 0.0
2017-Sep-29 19:28N 27°51' W 082°24'0 0.0
2017-Sep-29 19:01N 27°51' W 082°24'0 0.0
2017-Sep-29 18:25N 27°51' W 082°24'0 0.0
2017-Sep-29 17:58N 27°51' W 082°24'0 0.0
2017-Sep-29 17:28N 27°51' W 082°24'0 0.0
2017-Sep-29 16:58N 27°51' W 082°24'0 0.0
2017-Sep-29 16:28N 27°51' W 082°24'0 0.0
2017-Sep-29 15:58N 27°51' W 082°24'0 0.0
2017-Sep-29 15:28N 27°51' W 082°24'0 0.0
2017-Sep-29 15:01N 27°51' W 082°24'0 0.0
2017-Sep-29 14:28N 27°51' W 082°24'0 0.0
2017-Sep-29 13:58N 27°51' W 082°24'0 0.0
2017-Sep-29 13:31N 27°51' W 082°24'0 0.0
2017-Sep-29 12:58N 27°51' W 082°24'0 0.0
2017-Sep-29 12:28N 27°51' W 082°24'0 0.0
2017-Sep-29 11:34N 27°51' W 082°24'0 0.0
2017-Sep-29 11:22N 27°51' W 082°24'0 0.0
2017-Sep-29 10:58N 27°51' W 082°24'0 0.0
2017-Sep-29 10:07N 27°51' W 082°24'0 0.0
2017-Sep-29 09:55N 27°51' W 082°24'0 0.0
2017-Sep-29 09:28N 27°51' W 082°24'0 0.0
2017-Sep-29 08:58N 27°51' W 082°24'0 0.0
2017-Sep-29 08:28N 27°51' W 082°24'0 0.0
2017-Sep-29 07:52N 27°51' W 082°24'0 0.0
2017-Sep-29 07:07N 27°51' W 082°24'0 0.0
2017-Sep-29 06:58N 27°51' W 082°24'0 0.0
2017-Sep-29 06:25N 27°51' W 082°24'0 0.0
2017-Sep-29 05:52N 27°51' W 082°24'0 0.0
2017-Sep-29 05:13N 27°51' W 082°24'0 0.0
2017-Sep-29 04:58N 27°51' W 082°24'0 0.0
2017-Sep-29 04:28N 27°51' W 082°24'0 0.0
2017-Sep-29 03:58N 27°51' W 082°24'0 0.0
2017-Sep-29 03:31N 27°51' W 082°24'0 0.0
2017-Sep-29 03:01N 27°51' W 082°24'0 0.0
2017-Sep-29 02:28N 27°51' W 082°24'0 0.0
2017-Sep-29 01:58N 27°51' W 082°24'1 1.2
2017-Sep-29 01:30N 27°51' W 082°24'3 5.9
2017-Sep-29 01:00N 27°49' W 082°27'5 9.9
2017-Sep-29 00:30N 27°47' W 082°31'611.6
2017-Sep-29 00:00N 27°41' W 082°34'210 4.1
2017-Sep-26 21:03N 25°29' W 079°32'110.3
2017-Sep-26 20:57N 25°30' W 079°32'610.3
2017-Sep-26 20:22N 25°36' W 079°31'410.4
2017-Sep-26 20:00N 25°39' W 079°30'510.2
2017-Sep-26 19:30N 25°44' W 079°30'5 9.8
2017-Sep-26 19:00N 25°49' W 079°29'5 9.6
2017-Sep-26 18:30N 25°54' W 079°28'5 9.3
2017-Sep-26 17:55N 25°59' W 079°27'5 9.1
2017-Sep-26 17:23N 26°04' W 079°27'4 9.1
2017-Sep-26 17:00N 26°08' W 079°26'4 9.0
2017-Sep-26 16:30N 26°12' W 079°25'4 8.9
2017-Sep-26 16:00N 26°17' W 079°25'5 8.7
2017-Sep-26 15:29N 26°21' W 079°24'9 8.8
2017-Sep-26 14:24N 26°30' W 079°22'  
2017-Sep-23 20:57N 36°47' W 075°43'711.8
2017-Sep-23 20:22N 36°51' W 075°50'412.0
2017-Sep-23 20:00N 36°54' W 075°55'26 0.6
2017-Sep-22 01:57N 36°58' W 076°26'0 0.0
2017-Sep-22 01:24N 36°58' W 076°26'0 0.0
2017-Sep-22 01:00N 36°58' W 076°27'0 0.0
2017-Sep-22 00:30N 36°58' W 076°26'0 0.4
2017-Sep-22 00:01N 36°58' W 076°26'4 8.7
2017-Sep-21 23:30N 36°58' W 076°21'711.8
2017-Sep-21 22:53N 36°60' W 076°12'512.2
2017-Sep-21 22:30N 36°58' W 076°06'611.6
2017-Sep-21 22:00N 36°57' W 075°59'4 8.5
2017-Sep-21 21:30N 36°55' W 075°55'4 7.8
2017-Sep-21 21:00N 36°52' W 075°51'612.2
2017-Sep-21 20:30N 36°49' W 075°44'9 4.1
2017-Sep-21 18:25N 36°45' W 075°35'  

Dump ship's entire track history